sensor_id;sensor_type;location;lat;lon;timestamp;pressure;altitude;pressure_sealevel;temperature;humidity
54022;BME280;39936;51.058;17.220;2023-04-24T00:03:13;100610.08;;;10.98;100.00
54022;BME280;39936;51.058;17.220;2023-04-24T00:06:49;100634.52;;;11.16;100.00
54022;BME280;39936;51.058;17.220;2023-04-24T00:10:53;100624.05;;;11.12;100.00
54022;BME280;39936;51.058;17.220;2023-04-24T00:14:30;100622.87;;;11.13;100.00
54022;BME280;39936;51.058;17.220;2023-04-24T00:17:47;100616.57;;;11.16;100.00
54022;BME280;39936;51.058;17.220;2023-04-24T00:21:37;100620.59;;;11.26;100.00
54022;BME280;39936;51.058;17.220;2023-04-24T00:29:20;100604.42;;;11.37;100.00
54022;BME280;39936;51.058;17.220;2023-04-24T00:33:08;100600.70;;;11.41;100.00
54022;BME280;39936;51.058;17.220;2023-04-24T00:36:47;100596.86;;;11.43;100.00
54022;BME280;39936;51.058;17.220;2023-04-24T00:40:31;100594.58;;;11.37;100.00
54022;BME280;39936;51.058;17.220;2023-04-24T00:44:01;100596.45;;;11.36;100.00
54022;BME280;39936;51.058;17.220;2023-04-24T00:47:27;100595.39;;;11.32;100.00
54022;BME280;39936;51.058;17.220;2023-04-24T00:51:05;100583.75;;;11.24;100.00
54022;BME280;39936;51.058;17.220;2023-04-24T00:54:59;100592.19;;;11.32;100.00
54022;BME280;39936;51.058;17.220;2023-04-24T00:58:15;100596.02;;;11.35;100.00
54022;BME280;39936;51.058;17.220;2023-04-24T01:01:45;100560.38;;;11.18;100.00
54022;BME280;39936;51.058;17.220;2023-04-24T01:05:32;100587.73;;;11.42;100.00
54022;BME280;39936;51.058;17.220;2023-04-24T01:12:55;100584.77;;;11.48;100.00
54022;BME280;39936;51.058;17.220;2023-04-24T01:16:30;100574.35;;;11.50;100.00
54022;BME280;39936;51.058;17.220;2023-04-24T01:20:18;100573.75;;;11.53;100.00
54022;BME280;39936;51.058;17.220;2023-04-24T01:24:08;100572.96;;;11.54;100.00
54022;BME280;39936;51.058;17.220;2023-04-24T01:27:58;100575.47;;;11.56;100.00
54022;BME280;39936;51.058;17.220;2023-04-24T01:31:37;100576.84;;;11.57;100.00
54022;BME280;39936;51.058;17.220;2023-04-24T01:35:11;100577.10;;;11.57;100.00
54022;BME280;39936;51.058;17.220;2023-04-24T01:38:27;100575.10;;;11.58;100.00
54022;BME280;39936;51.058;17.220;2023-04-24T01:42:27;100571.75;;;11.57;100.00
54022;BME280;39936;51.058;17.220;2023-04-24T01:46:36;100563.65;;;11.62;100.00
54022;BME280;39936;51.058;17.220;2023-04-24T01:50:36;100555.96;;;11.65;100.00
54022;BME280;39936;51.058;17.220;2023-04-24T01:54:36;100558.81;;;11.70;100.00
54022;BME280;39936;51.058;17.220;2023-04-24T01:58:25;100554.92;;;11.74;100.00
54022;BME280;39936;51.058;17.220;2023-04-24T02:02:04;100552.66;;;11.78;100.00
54022;BME280;39936;51.058;17.220;2023-04-24T02:05:21;100546.59;;;11.81;100.00
54022;BME280;39936;51.058;17.220;2023-04-24T02:08:41;100548.29;;;11.81;100.00
54022;BME280;39936;51.058;17.220;2023-04-24T02:12:20;100547.20;;;11.80;100.00
54022;BME280;39936;51.058;17.220;2023-04-24T02:16:05;100544.31;;;11.79;100.00
54022;BME280;39936;51.058;17.220;2023-04-24T02:20:08;100541.68;;;11.79;100.00
54022;BME280;39936;51.058;17.220;2023-04-24T02:23:46;100541.41;;;11.83;100.00
54022;BME280;39936;51.058;17.220;2023-04-24T02:27:16;100541.69;;;11.83;100.00
54022;BME280;39936;51.058;17.220;2023-04-24T02:31:34;100509.59;;;11.64;100.00
54022;BME280;39936;51.058;17.220;2023-04-24T02:35:24;100534.72;;;11.76;100.00
54022;BME280;39936;51.058;17.220;2023-04-24T02:42:56;100527.47;;;11.83;100.00
54022;BME280;39936;51.058;17.220;2023-04-24T02:46:36;100514.00;;;11.82;100.00
54022;BME280;39936;51.058;17.220;2023-04-24T02:50:26;100511.31;;;11.89;100.00
54022;BME280;39936;51.058;17.220;2023-04-24T02:54:02;100505.05;;;11.89;100.00
54022;BME280;39936;51.058;17.220;2023-04-24T02:57:32;100501.22;;;11.86;100.00
54022;BME280;39936;51.058;17.220;2023-04-24T03:00:54;100499.75;;;11.83;100.00
54022;BME280;39936;51.058;17.220;2023-04-24T03:04:12;100494.12;;;11.80;100.00
54022;BME280;39936;51.058;17.220;2023-04-24T03:07:45;100496.84;;;11.72;100.00
54022;BME280;39936;51.058;17.220;2023-04-24T03:11:54;100492.75;;;11.66;100.00
54022;BME280;39936;51.058;17.220;2023-04-24T03:23:32;100490.94;;;11.71;100.00
54022;BME280;39936;51.058;17.220;2023-04-24T03:27:19;100488.56;;;11.73;100.00
54022;BME280;39936;51.058;17.220;2023-04-24T03:34:43;100491.88;;;11.82;100.00
54022;BME280;39936;51.058;17.220;2023-04-24T03:38:15;100461.52;;;11.63;100.00
54022;BME280;39936;51.058;17.220;2023-04-24T03:42:17;100494.57;;;11.80;100.00
54022;BME280;39936;51.058;17.220;2023-04-24T03:45:35;100491.81;;;11.81;100.00
54022;BME280;39936;51.058;17.220;2023-04-24T03:49:12;100496.45;;;11.84;100.00
54022;BME280;39936;51.058;17.220;2023-04-24T03:52:35;100504.41;;;11.80;100.00
54022;BME280;39936;51.058;17.220;2023-04-24T03:56:07;100520.87;;;11.83;100.00
54022;BME280;39936;51.058;17.220;2023-04-24T04:00:18;100526.79;;;11.88;100.00
54022;BME280;39936;51.058;17.220;2023-04-24T04:07:30;100535.98;;;11.77;100.00
54022;BME280;39936;51.058;17.220;2023-04-24T04:11:18;100506.08;;;11.57;100.00
54022;BME280;39936;51.058;17.220;2023-04-24T04:14:58;100544.29;;;11.83;100.00
54022;BME280;39936;51.058;17.220;2023-04-24T04:18:49;100543.94;;;11.90;100.00
54022;BME280;39936;51.058;17.220;2023-04-24T04:22:18;100542.80;;;11.98;100.00
54022;BME280;39936;51.058;17.220;2023-04-24T04:25:36;100527.95;;;11.97;100.00
54022;BME280;39936;51.058;17.220;2023-04-24T04:29:47;100528.16;;;11.86;100.00
54022;BME280;39936;51.058;17.220;2023-04-24T04:33:07;100520.98;;;11.83;100.00
54022;BME280;39936;51.058;17.220;2023-04-24T04:36:44;100493.63;;;11.66;100.00
54022;BME280;39936;51.058;17.220;2023-04-24T04:40:23;100498.49;;;11.70;100.00
54022;BME280;39936;51.058;17.220;2023-04-24T04:44:12;100519.58;;;11.95;100.00
54022;BME280;39936;51.058;17.220;2023-04-24T04:47:49;100515.05;;;12.08;99.48
54022;BME280;39936;51.058;17.220;2023-04-24T04:51:25;100523.19;;;12.18;98.50
54022;BME280;39936;51.058;17.220;2023-04-24T04:55:52;100524.30;;;12.31;97.67
54022;BME280;39936;51.058;17.220;2023-04-24T04:59:34;100525.24;;;12.43;96.17
54022;BME280;39936;51.058;17.220;2023-04-24T05:03:06;100523.83;;;12.49;94.88
54022;BME280;39936;51.058;17.220;2023-04-24T05:06:44;100530.02;;;12.51;93.96
54022;BME280;39936;51.058;17.220;2023-04-24T05:10:07;100530.38;;;12.50;93.79
54022;BME280;39936;51.058;17.220;2023-04-24T05:14:14;100498.09;;;12.38;93.59
54022;BME280;39936;51.058;17.220;2023-04-24T05:17:51;100525.77;;;12.63;93.04
54022;BME280;39936;51.058;17.220;2023-04-24T05:21:36;100528.44;;;12.69;92.74
54022;BME280;39936;51.058;17.220;2023-04-24T05:25:39;100531.53;;;12.76;92.14
54022;BME280;39936;51.058;17.220;2023-04-24T05:29:02;100528.19;;;12.91;91.84
54022;BME280;39936;51.058;17.220;2023-04-24T05:32:20;100525.48;;;12.92;90.14
54022;BME280;39936;51.058;17.220;2023-04-24T05:35:56;100526.00;;;12.97;90.10
54022;BME280;39936;51.058;17.220;2023-04-24T05:39:36;100526.23;;;13.03;89.58
54022;BME280;39936;51.058;17.220;2023-04-24T05:43:55;100527.77;;;13.13;88.92
54022;BME280;39936;51.058;17.220;2023-04-24T05:47:15;100524.73;;;13.20;87.85
54022;BME280;39936;51.058;17.220;2023-04-24T05:51:09;100523.34;;;13.26;87.13
54022;BME280;39936;51.058;17.220;2023-04-24T05:54:50;100523.24;;;13.33;85.84
54022;BME280;39936;51.058;17.220;2023-04-24T05:58:26;100520.02;;;13.46;85.59
54022;BME280;39936;51.058;17.220;2023-04-24T06:01:38;100495.88;;;13.59;85.89
54022;BME280;39936;51.058;17.220;2023-04-24T06:05:50;100524.03;;;13.92;83.58
54022;BME280;39936;51.058;17.220;2023-04-24T06:09:29;100526.77;;;14.11;82.00
54022;BME280;39936;51.058;17.220;2023-04-24T06:12:45;100524.64;;;14.03;78.67
54022;BME280;39936;51.058;17.220;2023-04-24T06:16:02;100528.81;;;14.19;78.75
54022;BME280;39936;51.058;17.220;2023-04-24T06:19:33;100531.31;;;14.11;78.43
54022;BME280;39936;51.058;17.220;2023-04-24T06:23:46;100529.48;;;14.03;78.83
54022;BME280;39936;51.058;17.220;2023-04-24T06:27:06;100532.82;;;14.00;80.48
54022;BME280;39936;51.058;17.220;2023-04-24T06:30:26;100530.35;;;14.01;80.10
54022;BME280;39936;51.058;17.220;2023-04-24T06:33:43;100529.05;;;14.01;78.58
54022;BME280;39936;51.058;17.220;2023-04-24T06:37:21;100531.71;;;14.06;76.05
54022;BME280;39936;51.058;17.220;2023-04-24T06:40:34;100524.15;;;14.08;75.61
54022;BME280;39936;51.058;17.220;2023-04-24T06:44:48;100512.40;;;14.13;73.48
54022;BME280;39936;51.058;17.220;2023-04-24T06:48:25;100521.12;;;14.22;73.74
54022;BME280;39936;51.058;17.220;2023-04-24T06:51:57;100510.40;;;14.25;72.82
54022;BME280;39936;51.058;17.220;2023-04-24T06:55:51;100521.41;;;14.46;74.42
54022;BME280;39936;51.058;17.220;2023-04-24T06:59:05;100517.35;;;14.54;72.65
54022;BME280;39936;51.058;17.220;2023-04-24T07:02:55;100523.74;;;14.60;73.07
54022;BME280;39936;51.058;17.220;2023-04-24T07:10:01;100524.75;;;14.59;73.82
54022;BME280;39936;51.058;17.220;2023-04-24T07:14:00;100520.19;;;14.63;73.23
54022;BME280;39936;51.058;17.220;2023-04-24T07:17:36;100512.12;;;14.59;73.66
54022;BME280;39936;51.058;17.220;2023-04-24T07:21:19;100518.02;;;14.73;72.97
54022;BME280;39936;51.058;17.220;2023-04-24T07:24:50;100514.74;;;14.82;73.61
54022;BME280;39936;51.058;17.220;2023-04-24T07:28:08;100515.73;;;14.94;73.27
54022;BME280;39936;51.058;17.220;2023-04-24T07:32:23;100517.63;;;15.14;73.91
54022;BME280;39936;51.058;17.220;2023-04-24T07:36:24;100516.74;;;15.56;74.21
54022;BME280;39936;51.058;17.220;2023-04-24T07:39:41;100507.81;;;15.98;71.26
54022;BME280;39936;51.058;17.220;2023-04-24T07:46:51;100513.90;;;16.16;69.09
54022;BME280;39936;51.058;17.220;2023-04-24T07:50:29;100516.66;;;16.12;67.73
54022;BME280;39936;51.058;17.220;2023-04-24T07:53:45;100523.91;;;15.90;68.09
54022;BME280;39936;51.058;17.220;2023-04-24T07:57:03;100522.49;;;15.88;68.95
54022;BME280;39936;51.058;17.220;2023-04-24T08:00:38;100522.51;;;15.80;69.99
54022;BME280;39936;51.058;17.220;2023-04-24T08:03:53;100532.13;;;15.63;69.67
54022;BME280;39936;51.058;17.220;2023-04-24T08:07:34;100513.58;;;15.66;70.11
54022;BME280;39936;51.058;17.220;2023-04-24T08:10:49;100530.92;;;15.85;70.00
54022;BME280;39936;51.058;17.220;2023-04-24T08:14:07;100530.38;;;15.83;71.08
54022;BME280;39936;51.058;17.220;2023-04-24T08:21:19;100532.16;;;15.14;75.13
54022;BME280;39936;51.058;17.220;2023-04-24T08:24:39;100529.30;;;14.99;77.70
54022;BME280;39936;51.058;17.220;2023-04-24T08:28:38;100531.59;;;14.81;78.43
54022;BME280;39936;51.058;17.220;2023-04-24T08:32:26;100528.37;;;14.84;82.36
54022;BME280;39936;51.058;17.220;2023-04-24T08:36:06;100534.44;;;15.18;84.86
54022;BME280;39936;51.058;17.220;2023-04-24T08:39:46;100532.74;;;15.55;84.38
54022;BME280;39936;51.058;17.220;2023-04-24T08:47:35;100533.49;;;15.91;82.43
54022;BME280;39936;51.058;17.220;2023-04-24T08:50:58;100531.53;;;16.09;80.46
54022;BME280;39936;51.058;17.220;2023-04-24T08:58:28;100521.91;;;16.53;80.02
54022;BME280;39936;51.058;17.220;2023-04-24T09:02:28;100524.41;;;16.72;75.59
54022;BME280;39936;51.058;17.220;2023-04-24T09:06:29;100502.17;;;16.88;76.09
54022;BME280;39936;51.058;17.220;2023-04-24T09:10:13;100522.16;;;17.17;71.87
54022;BME280;39936;51.058;17.220;2023-04-24T09:13:28;100525.48;;;17.35;69.63
54022;BME280;39936;51.058;17.220;2023-04-24T09:17:10;100525.00;;;17.29;68.31
54022;BME280;39936;51.058;17.220;2023-04-24T09:21:06;100497.44;;;16.78;66.68
54022;BME280;39936;51.058;17.220;2023-04-24T09:25:06;100526.02;;;16.92;66.44
54022;BME280;39936;51.058;17.220;2023-04-24T09:29:04;100521.96;;;16.91;66.07
54022;BME280;39936;51.058;17.220;2023-04-24T09:32:20;100515.96;;;17.01;65.57
54022;BME280;39936;51.058;17.220;2023-04-24T09:35:56;100509.05;;;17.29;67.31
54022;BME280;39936;51.058;17.220;2023-04-24T09:43:41;100498.25;;;17.85;64.23
54022;BME280;39936;51.058;17.220;2023-04-24T09:47:41;100486.66;;;17.72;65.80
54022;BME280;39936;51.058;17.220;2023-04-24T09:51:17;100479.13;;;17.74;65.17
54022;BME280;39936;51.058;17.220;2023-04-24T10:02:44;100473.23;;;18.26;62.28
54022;BME280;39936;51.058;17.220;2023-04-24T10:06:22;100476.04;;;18.35;63.90
54022;BME280;39936;51.058;17.220;2023-04-24T10:09:43;100469.45;;;18.34;62.70
54022;BME280;39936;51.058;17.220;2023-04-24T10:13:18;100469.62;;;18.16;59.40
54022;BME280;39936;51.058;17.220;2023-04-24T10:17:14;100473.91;;;17.94;59.19
54022;BME280;39936;51.058;17.220;2023-04-24T10:21:03;100477.94;;;17.93;61.81
54022;BME280;39936;51.058;17.220;2023-04-24T10:24:40;100476.63;;;17.97;62.37
54022;BME280;39936;51.058;17.220;2023-04-24T10:27:54;100483.22;;;17.87;62.18
54022;BME280;39936;51.058;17.220;2023-04-24T10:35:10;100484.26;;;18.05;63.70
54022;BME280;39936;51.058;17.220;2023-04-24T10:38:31;100484.78;;;18.18;62.93
54022;BME280;39936;51.058;17.220;2023-04-24T10:41:51;100478.06;;;18.03;65.66
54022;BME280;39936;51.058;17.220;2023-04-24T10:45:06;100490.17;;;18.03;65.86
54022;BME280;39936;51.058;17.220;2023-04-24T10:49:06;100489.68;;;18.14;63.04
54022;BME280;39936;51.058;17.220;2023-04-24T10:52:26;100487.18;;;17.97;61.86
54022;BME280;39936;51.058;17.220;2023-04-24T10:56:08;100485.59;;;17.86;61.13
54022;BME280;39936;51.058;17.220;2023-04-24T11:00:09;100486.30;;;17.83;61.76
54022;BME280;39936;51.058;17.220;2023-04-24T11:03:33;100489.02;;;17.39;62.95
54022;BME280;39936;51.058;17.220;2023-04-24T11:07:05;100496.93;;;17.34;62.85
54022;BME280;39936;51.058;17.220;2023-04-24T11:11:14;100494.96;;;17.13;63.98
54022;BME280;39936;51.058;17.220;2023-04-24T11:15:00;100491.68;;;17.32;66.33
54022;BME280;39936;51.058;17.220;2023-04-24T11:18:15;100478.15;;;17.98;66.72
54022;BME280;39936;51.058;17.220;2023-04-24T11:22:16;100436.81;;;18.37;60.53
54022;BME280;39936;51.058;17.220;2023-04-24T11:25:40;100471.76;;;18.57;56.90
54022;BME280;39936;51.058;17.220;2023-04-24T11:38:00;100468.22;;;17.74;60.08
54022;BME280;39936;51.058;17.220;2023-04-24T11:45:37;100476.48;;;17.40;64.39
54022;BME280;39936;51.058;17.220;2023-04-24T11:53:07;100485.52;;;17.15;66.34
54022;BME280;39936;51.058;17.220;2023-04-24T11:56:29;100486.32;;;17.16;67.05
54022;BME280;39936;51.058;17.220;2023-04-24T11:59:50;100491.33;;;17.23;67.26
54022;BME280;39936;51.058;17.220;2023-04-24T12:03:38;100485.85;;;17.23;66.24
54022;BME280;39936;51.058;17.220;2023-04-24T12:07:13;100477.23;;;17.16;65.54
54022;BME280;39936;51.058;17.220;2023-04-24T12:14:48;100481.01;;;16.75;65.61
54022;BME280;39936;51.058;17.220;2023-04-24T12:18:27;100481.31;;;16.78;65.36
54022;BME280;39936;51.058;17.220;2023-04-24T12:21:44;100478.37;;;16.69;64.54
54022;BME280;39936;51.058;17.220;2023-04-24T12:26:00;100479.28;;;16.54;64.44
54022;BME280;39936;51.058;17.220;2023-04-24T12:29:21;100478.70;;;16.46;64.20
54022;BME280;39936;51.058;17.220;2023-04-24T12:33:18;100457.98;;;16.16;65.62
54022;BME280;39936;51.058;17.220;2023-04-24T12:40:48;100478.30;;;16.14;65.56
54022;BME280;39936;51.058;17.220;2023-04-24T12:44:39;100478.74;;;15.98;66.46
54022;BME280;39936;51.058;17.220;2023-04-24T12:47:54;100478.98;;;15.92;66.38
54022;BME280;39936;51.058;17.220;2023-04-24T12:51:38;100476.78;;;15.86;66.68
54022;BME280;39936;51.058;17.220;2023-04-24T12:55:24;100477.41;;;15.74;68.00
54022;BME280;39936;51.058;17.220;2023-04-24T12:59:18;100473.09;;;15.69;69.06
54022;BME280;39936;51.058;17.220;2023-04-24T13:02:37;100468.34;;;15.62;70.31
54022;BME280;39936;51.058;17.220;2023-04-24T13:05:50;100468.94;;;15.59;70.04
54022;BME280;39936;51.058;17.220;2023-04-24T13:09:12;100470.59;;;15.55;71.39
54022;BME280;39936;51.058;17.220;2023-04-24T13:13:03;100468.58;;;15.31;74.88
54022;BME280;39936;51.058;17.220;2023-04-24T13:17:05;100468.67;;;15.32;75.42
54022;BME280;39936;51.058;17.220;2023-04-24T13:20:22;100468.66;;;15.06;77.99
54022;BME280;39936;51.058;17.220;2023-04-24T13:27:30;100468.30;;;14.89;79.86
54022;BME280;39936;51.058;17.220;2023-04-24T13:35:01;100461.90;;;14.79;80.82
54022;BME280;39936;51.058;17.220;2023-04-24T13:38:38;100458.56;;;14.76;82.08
54022;BME280;39936;51.058;17.220;2023-04-24T13:42:07;100460.07;;;14.73;78.17
54022;BME280;39936;51.058;17.220;2023-04-24T13:45:44;100450.87;;;14.68;77.90
54022;BME280;39936;51.058;17.220;2023-04-24T13:49:31;100461.29;;;14.73;78.71
54022;BME280;39936;51.058;17.220;2023-04-24T13:53:20;100452.36;;;14.65;79.92
54022;BME280;39936;51.058;17.220;2023-04-24T13:56:49;100455.58;;;14.68;81.54
54022;BME280;39936;51.058;17.220;2023-04-24T14:00:29;100426.27;;;14.54;82.47
54022;BME280;39936;51.058;17.220;2023-04-24T14:04:09;100462.47;;;14.78;81.16
54022;BME280;39936;51.058;17.220;2023-04-24T14:08:34;100463.82;;;14.74;80.69
54022;BME280;39936;51.058;17.220;2023-04-24T14:12:28;100468.06;;;14.52;81.14
54022;BME280;39936;51.058;17.220;2023-04-24T14:15:50;100474.35;;;14.40;80.16
54022;BME280;39936;51.058;17.220;2023-04-24T14:19:43;100474.95;;;14.30;77.20
54022;BME280;39936;51.058;17.220;2023-04-24T14:23:39;100474.19;;;14.27;76.08
54022;BME280;39936;51.058;17.220;2023-04-24T14:27:00;100475.84;;;14.07;75.60
54022;BME280;39936;51.058;17.220;2023-04-24T14:34:14;100473.97;;;13.78;72.78
54022;BME280;39936;51.058;17.220;2023-04-24T14:37:34;100476.48;;;13.64;74.33
54022;BME280;39936;51.058;17.220;2023-04-24T14:41:35;100480.86;;;13.54;75.37
54022;BME280;39936;51.058;17.220;2023-04-24T14:45:13;100482.50;;;13.41;76.86
54022;BME280;39936;51.058;17.220;2023-04-24T14:48:54;100482.09;;;13.41;77.20
54022;BME280;39936;51.058;17.220;2023-04-24T14:52:35;100461.69;;;13.25;77.89
54022;BME280;39936;51.058;17.220;2023-04-24T14:59:53;100485.22;;;13.15;78.03
54022;BME280;39936;51.058;17.220;2023-04-24T15:03:37;100492.06;;;13.06;78.18
54022;BME280;39936;51.058;17.220;2023-04-24T15:11:03;100491.66;;;12.95;80.00
54022;BME280;39936;51.058;17.220;2023-04-24T15:14:43;100474.92;;;12.76;79.48
54022;BME280;39936;51.058;17.220;2023-04-24T15:18:39;100504.01;;;12.89;80.14
54022;BME280;39936;51.058;17.220;2023-04-24T15:21:58;100509.24;;;12.86;80.41
54022;BME280;39936;51.058;17.220;2023-04-24T15:25:42;100509.41;;;12.78;81.69
54022;BME280;39936;51.058;17.220;2023-04-24T15:29:56;100509.10;;;12.71;82.55
54022;BME280;39936;51.058;17.220;2023-04-24T15:33:39;100508.80;;;12.52;83.51
54022;BME280;39936;51.058;17.220;2023-04-24T15:37:11;100495.62;;;12.47;83.17
54022;BME280;39936;51.058;17.220;2023-04-24T15:40:48;100484.98;;;12.24;82.95
54022;BME280;39936;51.058;17.220;2023-04-24T15:44:25;100521.27;;;12.39;84.48
54022;BME280;39936;51.058;17.220;2023-04-24T15:47:56;100517.50;;;12.26;83.41
54022;BME280;39936;51.058;17.220;2023-04-24T15:51:38;100526.46;;;12.21;84.00
54022;BME280;39936;51.058;17.220;2023-04-24T15:55:29;100525.27;;;12.16;84.78
54022;BME280;39936;51.058;17.220;2023-04-24T15:58:59;100525.66;;;12.11;84.55
54022;BME280;39936;51.058;17.220;2023-04-24T16:02:33;100495.34;;;11.87;85.34
54022;BME280;39936;51.058;17.220;2023-04-24T16:05:56;100526.67;;;12.04;86.66
54022;BME280;39936;51.058;17.220;2023-04-24T16:09:15;100531.44;;;11.99;88.49
54022;BME280;39936;51.058;17.220;2023-04-24T16:13:00;100529.98;;;11.94;90.13
54022;BME280;39936;51.058;17.220;2023-04-24T16:16:54;100526.52;;;11.89;91.69
54022;BME280;39936;51.058;17.220;2023-04-24T16:20:49;100512.57;;;11.79;93.36
54022;BME280;39936;51.058;17.220;2023-04-24T16:24:29;100523.88;;;11.84;94.24
54022;BME280;39936;51.058;17.220;2023-04-24T16:27:48;100521.13;;;11.83;95.30
54022;BME280;39936;51.058;17.220;2023-04-24T16:35:08;100525.84;;;11.74;97.83
54022;BME280;39936;51.058;17.220;2023-04-24T16:39:13;100526.52;;;11.69;98.20
54022;BME280;39936;51.058;17.220;2023-04-24T16:42:51;100530.92;;;11.69;99.90
54022;BME280;39936;51.058;17.220;2023-04-24T16:46:11;100531.61;;;11.62;100.00
54022;BME280;39936;51.058;17.220;2023-04-24T16:49:27;100533.56;;;11.65;100.00
54022;BME280;39936;51.058;17.220;2023-04-24T16:52:48;100527.02;;;11.72;100.00
54022;BME280;39936;51.058;17.220;2023-04-24T16:56:06;100527.99;;;11.74;100.00
54022;BME280;39936;51.058;17.220;2023-04-24T17:03:14;100530.17;;;11.71;100.00
54022;BME280;39936;51.058;17.220;2023-04-24T17:10:25;100532.12;;;11.66;100.00
54022;BME280;39936;51.058;17.220;2023-04-24T17:14:02;100537.14;;;11.70;100.00
54022;BME280;39936;51.058;17.220;2023-04-24T17:17:19;100534.81;;;11.72;100.00
54022;BME280;39936;51.058;17.220;2023-04-24T17:20:38;100543.55;;;11.74;100.00
54022;BME280;39936;51.058;17.220;2023-04-24T17:27:51;100545.20;;;11.68;100.00
54022;BME280;39936;51.058;17.220;2023-04-24T17:31:12;100551.73;;;11.64;100.00
54022;BME280;39936;51.058;17.220;2023-04-24T17:34:29;100523.64;;;11.50;100.00
54022;BME280;39936;51.058;17.220;2023-04-24T17:37:46;100551.58;;;11.65;100.00
54022;BME280;39936;51.058;17.220;2023-04-24T17:41:21;100547.09;;;11.64;100.00
54022;BME280;39936;51.058;17.220;2023-04-24T17:45:02;100533.16;;;11.63;100.00
54022;BME280;39936;51.058;17.220;2023-04-24T17:48:37;100527.28;;;11.40;100.00
54022;BME280;39936;51.058;17.220;2023-04-24T17:56:05;100535.42;;;11.12;100.00
54022;BME280;39936;51.058;17.220;2023-04-24T17:59:42;100553.64;;;11.14;100.00
54022;BME280;39936;51.058;17.220;2023-04-24T18:03:47;100560.29;;;11.11;100.00
54022;BME280;39936;51.058;17.220;2023-04-24T18:11:45;100564.97;;;11.15;100.00
54022;BME280;39936;51.058;17.220;2023-04-24T18:19:35;100585.80;;;11.02;100.00
54022;BME280;39936;51.058;17.220;2023-04-24T18:23:46;100582.06;;;11.03;100.00
54022;BME280;39936;51.058;17.220;2023-04-24T18:27:48;100615.70;;;11.05;100.00
54022;BME280;39936;51.058;17.220;2023-04-24T18:31:16;100618.66;;;10.90;100.00
54022;BME280;39936;51.058;17.220;2023-04-24T18:34:52;100626.85;;;10.77;100.00
54022;BME280;39936;51.058;17.220;2023-04-24T18:38:28;100595.01;;;10.46;100.00
54022;BME280;39936;51.058;17.220;2023-04-24T18:41:45;100631.91;;;10.65;100.00
54022;BME280;39936;51.058;17.220;2023-04-24T18:45:22;100617.39;;;10.58;100.00
54022;BME280;39936;51.058;17.220;2023-04-24T18:49:10;100630.98;;;10.69;100.00
54022;BME280;39936;51.058;17.220;2023-04-24T18:52:44;100631.86;;;10.78;100.00
54022;BME280;39936;51.058;17.220;2023-04-24T18:56:31;100631.52;;;10.78;100.00
54022;BME280;39936;51.058;17.220;2023-04-24T18:59:59;100629.46;;;10.85;100.00
54022;BME280;39936;51.058;17.220;2023-04-24T19:03:15;100631.97;;;10.92;100.00
54022;BME280;39936;51.058;17.220;2023-04-24T19:07:10;100627.15;;;10.92;100.00
54022;BME280;39936;51.058;17.220;2023-04-24T19:10:46;100630.43;;;10.94;100.00
54022;BME280;39936;51.058;17.220;2023-04-24T19:14:25;100593.50;;;10.76;100.00
54022;BME280;39936;51.058;17.220;2023-04-24T19:17:38;100625.93;;;11.03;100.00
54022;BME280;39936;51.058;17.220;2023-04-24T19:20:56;100626.55;;;11.06;100.00
54022;BME280;39936;51.058;17.220;2023-04-24T19:24:36;100632.74;;;11.08;100.00
54022;BME280;39936;51.058;17.220;2023-04-24T19:28:15;100613.88;;;10.96;100.00
54022;BME280;39936;51.058;17.220;2023-04-24T19:31:53;100624.01;;;11.08;100.00
54022;BME280;39936;51.058;17.220;2023-04-24T19:35:42;100620.40;;;11.13;100.00
54022;BME280;39936;51.058;17.220;2023-04-24T19:39:17;100615.38;;;11.17;100.00
54022;BME280;39936;51.058;17.220;2023-04-24T19:42:54;100595.27;;;11.08;100.00
54022;BME280;39936;51.058;17.220;2023-04-24T19:46:08;100611.98;;;11.18;100.00
54022;BME280;39936;51.058;17.220;2023-04-24T19:49:44;100606.52;;;11.16;100.00
54022;BME280;39936;51.058;17.220;2023-04-24T19:53:36;100572.89;;;10.85;100.00
54022;BME280;39936;51.058;17.220;2023-04-24T19:57:26;100606.52;;;10.96;100.00
54022;BME280;39936;51.058;17.220;2023-04-24T20:01:16;100609.51;;;10.87;100.00
54022;BME280;39936;51.058;17.220;2023-04-24T20:05:32;100614.89;;;10.71;100.00
54022;BME280;39936;51.058;17.220;2023-04-24T20:09:35;100612.28;;;10.58;100.00
54022;BME280;39936;51.058;17.220;2023-04-24T20:13:13;100578.61;;;10.25;100.00
54022;BME280;39936;51.058;17.220;2023-04-24T20:17:05;100590.69;;;10.26;100.00
54022;BME280;39936;51.058;17.220;2023-04-24T20:20:23;100622.88;;;10.39;100.00
54022;BME280;39936;51.058;17.220;2023-04-24T20:24:03;100623.93;;;10.37;100.00
54022;BME280;39936;51.058;17.220;2023-04-24T20:27:24;100623.52;;;10.28;100.00
54022;BME280;39936;51.058;17.220;2023-04-24T20:31:13;100627.59;;;10.21;100.00
54022;BME280;39936;51.058;17.220;2023-04-24T20:35:38;100626.29;;;10.18;100.00
54022;BME280;39936;51.058;17.220;2023-04-24T20:43:42;100608.21;;;9.94;100.00
54022;BME280;39936;51.058;17.220;2023-04-24T20:48:05;100634.95;;;10.13;100.00
54022;BME280;39936;51.058;17.220;2023-04-24T20:55:29;100638.27;;;10.12;100.00
54022;BME280;39936;51.058;17.220;2023-04-24T20:58:58;100637.75;;;10.21;100.00
54022;BME280;39936;51.058;17.220;2023-04-24T21:02:37;100637.45;;;10.24;100.00